Terminal Aerodrome Forecast
Issued by NWS Flagstaff, AZ

Home | Current Version | Previous Version | Text Only | Print | Product List | Glossary On
Versions: 1 2 3 4 5 6 7 8 9 10 11 12 13
000
FTUS45 KFGZ 110521
TAFINW
TAF
KINW 110521Z 1106/1206 21009KT P6SM SCT100 BKN150
     FM111500 22008KT P6SM SCT035 BKN080
      TEMPO 1202/1206 BKN035=

USA.gov is the U.S. government's official web portal to all federal, state and local government web resources and services.